Terminal Aerodrome Forecast
Issued by NWS

Home | Current Version | Previous Version | Graphics & Text | Print | Product List | Glossary On
Versions: 1 2 3 4 5 6 7 8 9 10 11 12
000
FTUS43 KABR 150520
TAFPIR
TAF
KPIR 150520Z 1506/1606 06003KT P6SM FEW060
     FM151100 20004KT P6SM SCT200
     FM160000 14004KT P6SM SCT250=

USA.gov is the U.S. government's official web portal to all federal, state and local government web resources and services.